sensor_id;sensor_type;location;lat;lon;timestamp;P1;durP1;ratioP1;P2;durP2;ratioP2
60999;SDS011;46879;45.658;11.814;2023-05-16T00:01:33;3.95;;;2.03;;
60999;SDS011;46879;45.658;11.814;2023-05-16T00:06:34;3.25;;;2.05;;
60999;SDS011;46879;45.658;11.814;2023-05-16T00:11:35;1.90;;;1.80;;
60999;SDS011;46879;45.658;11.814;2023-05-16T00:16:35;3.38;;;2.10;;
60999;SDS011;46879;45.658;11.814;2023-05-16T00:21:36;2.15;;;1.50;;
60999;SDS011;46879;45.658;11.814;2023-05-16T00:26:36;1.98;;;1.77;;
60999;SDS011;46879;45.658;11.814;2023-05-16T00:31:37;3.60;;;1.70;;
60999;SDS011;46879;45.658;11.814;2023-05-16T00:36:37;3.63;;;1.70;;
60999;SDS011;46879;45.658;11.814;2023-05-16T00:41:38;2.10;;;1.83;;
60999;SDS011;46879;45.658;11.814;2023-05-16T00:46:39;1.65;;;1.55;;
60999;SDS011;46879;45.658;11.814;2023-05-16T00:51:40;1.83;;;1.60;;
60999;SDS011;46879;45.658;11.814;2023-05-16T00:56:41;5.30;;;1.52;;
60999;SDS011;46879;45.658;11.814;2023-05-16T01:01:43;1.60;;;1.50;;
60999;SDS011;46879;45.658;11.814;2023-05-16T01:06:46;3.25;;;1.80;;
60999;SDS011;46879;45.658;11.814;2023-05-16T01:27:45;2.05;;;1.40;;
60999;SDS011;46879;45.658;11.814;2023-05-16T01:32:46;1.50;;;1.40;;
60999;SDS011;46879;45.658;11.814;2023-05-16T01:43:16;1.40;;;1.30;;
60999;SDS011;46879;45.658;11.814;2023-05-16T01:48:26;2.17;;;1.27;;
60999;SDS011;46879;45.658;11.814;2023-05-16T01:53:38;1.63;;;1.40;;
60999;SDS011;46879;45.658;11.814;2023-05-16T01:58:38;1.52;;;1.10;;
60999;SDS011;46879;45.658;11.814;2023-05-16T02:03:40;1.42;;;1.30;;
60999;SDS011;46879;45.658;11.814;2023-05-16T02:08:41;1.15;;;0.82;;
60999;SDS011;46879;45.658;11.814;2023-05-16T02:13:41;1.88;;;1.35;;
60999;SDS011;46879;45.658;11.814;2023-05-16T02:18:42;1.70;;;1.40;;
60999;SDS011;46879;45.658;11.814;2023-05-16T02:23:44;0.90;;;0.90;;
60999;SDS011;46879;45.658;11.814;2023-05-16T02:28:45;1.20;;;1.10;;
60999;SDS011;46879;45.658;11.814;2023-05-16T02:33:48;2.08;;;1.10;;
60999;SDS011;46879;45.658;11.814;2023-05-16T02:38:49;1.30;;;1.20;;
60999;SDS011;46879;45.658;11.814;2023-05-16T02:43:49;2.95;;;0.98;;
60999;SDS011;46879;45.658;11.814;2023-05-16T02:48:50;2.58;;;1.10;;
60999;SDS011;46879;45.658;11.814;2023-05-16T02:53:51;2.80;;;1.40;;
60999;SDS011;46879;45.658;11.814;2023-05-16T02:58:52;2.90;;;1.23;;
60999;SDS011;46879;45.658;11.814;2023-05-16T03:03:54;1.38;;;1.27;;
60999;SDS011;46879;45.658;11.814;2023-05-16T03:08:54;1.92;;;1.13;;
60999;SDS011;46879;45.658;11.814;2023-05-16T03:13:55;6.68;;;1.17;;
60999;SDS011;46879;45.658;11.814;2023-05-16T03:18:58;1.45;;;0.98;;
60999;SDS011;46879;45.658;11.814;2023-05-16T03:23:58;2.78;;;1.23;;
60999;SDS011;46879;45.658;11.814;2023-05-16T03:28:59;1.90;;;1.30;;
60999;SDS011;46879;45.658;11.814;2023-05-16T03:33:59;1.23;;;1.13;;
60999;SDS011;46879;45.658;11.814;2023-05-16T03:39:00;1.27;;;1.15;;
60999;SDS011;46879;45.658;11.814;2023-05-16T03:44:01;2.35;;;1.17;;
60999;SDS011;46879;45.658;11.814;2023-05-16T03:49:01;1.25;;;1.15;;
60999;SDS011;46879;45.658;11.814;2023-05-16T03:54:02;1.20;;;1.10;;
60999;SDS011;46879;45.658;11.814;2023-05-16T03:59:03;1.95;;;1.10;;
60999;SDS011;46879;45.658;11.814;2023-05-16T04:04:03;1.10;;;1.10;;
60999;SDS011;46879;45.658;11.814;2023-05-16T04:09:04;1.70;;;1.10;;
60999;SDS011;46879;45.658;11.814;2023-05-16T04:14:05;1.42;;;1.30;;
60999;SDS011;46879;45.658;11.814;2023-05-16T04:19:06;1.00;;;1.00;;
60999;SDS011;46879;45.658;11.814;2023-05-16T04:24:06;1.38;;;1.15;;
60999;SDS011;46879;45.658;11.814;2023-05-16T04:29:07;1.77;;;1.20;;
60999;SDS011;46879;45.658;11.814;2023-05-16T04:34:08;1.40;;;1.30;;
60999;SDS011;46879;45.658;11.814;2023-05-16T04:39:08;3.20;;;1.13;;
60999;SDS011;46879;45.658;11.814;2023-05-16T04:44:09;1.33;;;1.23;;
60999;SDS011;46879;45.658;11.814;2023-05-16T04:49:10;1.08;;;1.08;;
60999;SDS011;46879;45.658;11.814;2023-05-16T04:54:11;1.30;;;1.20;;
60999;SDS011;46879;45.658;11.814;2023-05-16T04:59:11;1.70;;;1.20;;
60999;SDS011;46879;45.658;11.814;2023-05-16T05:04:12;5.07;;;1.10;;
60999;SDS011;46879;45.658;11.814;2023-05-16T05:09:13;1.42;;;1.05;;
60999;SDS011;46879;45.658;11.814;2023-05-16T05:14:13;1.17;;;1.10;;
60999;SDS011;46879;45.658;11.814;2023-05-16T05:19:14;1.88;;;1.20;;
60999;SDS011;46879;45.658;11.814;2023-05-16T05:24:14;1.40;;;1.30;;
60999;SDS011;46879;45.658;11.814;2023-05-16T05:29:15;1.30;;;1.20;;
60999;SDS011;46879;45.658;11.814;2023-05-16T05:34:16;1.30;;;1.20;;
60999;SDS011;46879;45.658;11.814;2023-05-16T05:39:16;1.67;;;1.33;;
60999;SDS011;46879;45.658;11.814;2023-05-16T05:44:17;1.70;;;1.45;;
60999;SDS011;46879;45.658;11.814;2023-05-16T05:49:17;1.80;;;1.30;;
60999;SDS011;46879;45.658;11.814;2023-05-16T05:54:18;3.30;;;1.20;;
60999;SDS011;46879;45.658;11.814;2023-05-16T05:59:19;2.78;;;1.92;;
60999;SDS011;46879;45.658;11.814;2023-05-16T06:04:20;7.10;;;1.30;;
60999;SDS011;46879;45.658;11.814;2023-05-16T06:09:21;3.70;;;1.60;;
60999;SDS011;46879;45.658;11.814;2023-05-16T06:14:21;6.82;;;1.77;;
60999;SDS011;46879;45.658;11.814;2023-05-16T06:19:22;4.70;;;1.80;;
60999;SDS011;46879;45.658;11.814;2023-05-16T06:24:22;5.35;;;1.60;;
60999;SDS011;46879;45.658;11.814;2023-05-16T06:29:23;10.50;;;2.25;;
60999;SDS011;46879;45.658;11.814;2023-05-16T06:34:24;8.30;;;1.75;;
60999;SDS011;46879;45.658;11.814;2023-05-16T06:39:27;11.63;;;1.75;;
60999;SDS011;46879;45.658;11.814;2023-05-16T06:44:27;4.80;;;1.50;;
60999;SDS011;46879;45.658;11.814;2023-05-16T06:49:28;2.63;;;1.50;;
60999;SDS011;46879;45.658;11.814;2023-05-16T06:54:29;5.03;;;1.48;;
60999;SDS011;46879;45.658;11.814;2023-05-16T06:59:29;3.63;;;1.42;;
60999;SDS011;46879;45.658;11.814;2023-05-16T07:04:30;4.45;;;1.83;;
60999;SDS011;46879;45.658;11.814;2023-05-16T07:09:30;5.45;;;1.40;;
60999;SDS011;46879;45.658;11.814;2023-05-16T07:14:31;4.03;;;1.35;;
60999;SDS011;46879;45.658;11.814;2023-05-16T07:19:31;3.28;;;1.50;;
60999;SDS011;46879;45.658;11.814;2023-05-16T07:24:32;4.97;;;2.00;;
60999;SDS011;46879;45.658;11.814;2023-05-16T07:29:33;4.20;;;1.50;;
60999;SDS011;46879;45.658;11.814;2023-05-16T07:34:36;3.72;;;1.38;;
60999;SDS011;46879;45.658;11.814;2023-05-16T07:39:36;5.03;;;1.52;;
60999;SDS011;46879;45.658;11.814;2023-05-16T07:44:39;2.40;;;1.30;;
60999;SDS011;46879;45.658;11.814;2023-05-16T07:49:40;1.77;;;1.02;;
60999;SDS011;46879;45.658;11.814;2023-05-16T07:54:41;1.27;;;1.10;;
60999;SDS011;46879;45.658;11.814;2023-05-16T07:59:41;3.17;;;1.30;;
60999;SDS011;46879;45.658;11.814;2023-05-16T08:04:43;2.25;;;1.38;;
60999;SDS011;46879;45.658;11.814;2023-05-16T08:09:44;5.82;;;1.45;;
60999;SDS011;46879;45.658;11.814;2023-05-16T08:14:45;5.35;;;1.50;;
60999;SDS011;46879;45.658;11.814;2023-05-16T08:19:46;8.20;;;1.52;;
60999;SDS011;46879;45.658;11.814;2023-05-16T08:24:46;1.80;;;1.45;;
60999;SDS011;46879;45.658;11.814;2023-05-16T08:29:47;5.45;;;1.20;;
60999;SDS011;46879;45.658;11.814;2023-05-16T08:34:47;2.90;;;1.40;;
60999;SDS011;46879;45.658;11.814;2023-05-16T08:39:48;2.72;;;1.27;;
60999;SDS011;46879;45.658;11.814;2023-05-16T08:44:48;1.83;;;1.40;;
60999;SDS011;46879;45.658;11.814;2023-05-16T08:49:50;1.40;;;0.90;;
60999;SDS011;46879;45.658;11.814;2023-05-16T08:54:55;1.30;;;1.20;;
60999;SDS011;46879;45.658;11.814;2023-05-16T09:00:00;3.50;;;1.60;;
60999;SDS011;46879;45.658;11.814;2023-05-16T09:05:15;2.42;;;1.30;;
60999;SDS011;46879;45.658;11.814;2023-05-16T09:10:16;2.28;;;1.42;;
60999;SDS011;46879;45.658;11.814;2023-05-16T09:15:18;5.63;;;2.00;;
60999;SDS011;46879;45.658;11.814;2023-05-16T09:20:22;1.38;;;1.20;;
60999;SDS011;46879;45.658;11.814;2023-05-16T09:25:23;4.10;;;1.40;;
60999;SDS011;46879;45.658;11.814;2023-05-16T09:30:33;4.50;;;1.23;;
60999;SDS011;46879;45.658;11.814;2023-05-16T09:35:34;2.55;;;1.40;;
60999;SDS011;46879;45.658;11.814;2023-05-16T09:40:35;3.83;;;1.40;;
60999;SDS011;46879;45.658;11.814;2023-05-16T09:45:43;2.20;;;1.30;;
60999;SDS011;46879;45.658;11.814;2023-05-16T09:50:47;4.70;;;1.45;;
60999;SDS011;46879;45.658;11.814;2023-05-16T09:56:04;3.17;;;1.13;;
60999;SDS011;46879;45.658;11.814;2023-05-16T10:01:07;1.48;;;1.17;;
60999;SDS011;46879;45.658;11.814;2023-05-16T10:06:08;1.88;;;1.05;;
60999;SDS011;46879;45.658;11.814;2023-05-16T10:11:11;2.45;;;1.65;;
60999;SDS011;46879;45.658;11.814;2023-05-16T10:16:13;2.47;;;1.20;;
60999;SDS011;46879;45.658;11.814;2023-05-16T10:21:14;2.90;;;1.20;;
60999;SDS011;46879;45.658;11.814;2023-05-16T10:26:17;5.30;;;1.30;;
60999;SDS011;46879;45.658;11.814;2023-05-16T10:31:20;4.35;;;1.67;;
60999;SDS011;46879;45.658;11.814;2023-05-16T10:36:23;2.25;;;1.40;;
60999;SDS011;46879;45.658;11.814;2023-05-16T10:41:24;1.55;;;1.17;;
60999;SDS011;46879;45.658;11.814;2023-05-16T10:46:25;2.92;;;1.58;;
60999;SDS011;46879;45.658;11.814;2023-05-16T10:56:31;3.55;;;1.58;;
60999;SDS011;46879;45.658;11.814;2023-05-16T11:01:33;1.85;;;1.40;;
60999;SDS011;46879;45.658;11.814;2023-05-16T11:16:58;3.83;;;1.15;;
60999;SDS011;46879;45.658;11.814;2023-05-16T11:32:35;1.00;;;0.90;;
60999;SDS011;46879;45.658;11.814;2023-05-16T11:37:37;2.78;;;1.45;;
60999;SDS011;46879;45.658;11.814;2023-05-16T11:42:42;1.67;;;1.20;;
60999;SDS011;46879;45.658;11.814;2023-05-16T11:47:45;3.97;;;1.50;;
60999;SDS011;46879;45.658;11.814;2023-05-16T11:52:47;2.83;;;1.55;;
60999;SDS011;46879;45.658;11.814;2023-05-16T11:57:52;2.40;;;1.30;;
60999;SDS011;46879;45.658;11.814;2023-05-16T12:02:54;4.85;;;1.20;;
60999;SDS011;46879;45.658;11.814;2023-05-16T12:08:03;2.20;;;1.33;;
60999;SDS011;46879;45.658;11.814;2023-05-16T12:13:04;1.55;;;1.10;;
60999;SDS011;46879;45.658;11.814;2023-05-16T12:18:05;1.73;;;1.40;;
60999;SDS011;46879;45.658;11.814;2023-05-16T12:23:14;1.88;;;1.35;;
60999;SDS011;46879;45.658;11.814;2023-05-16T12:28:15;2.67;;;1.40;;
60999;SDS011;46879;45.658;11.814;2023-05-16T12:33:16;5.22;;;1.42;;
60999;SDS011;46879;45.658;11.814;2023-05-16T12:38:17;5.60;;;1.35;;
60999;SDS011;46879;45.658;11.814;2023-05-16T12:43:20;3.35;;;1.52;;
60999;SDS011;46879;45.658;11.814;2023-05-16T12:48:22;5.18;;;1.27;;
60999;SDS011;46879;45.658;11.814;2023-05-16T12:53:29;3.80;;;1.17;;
60999;SDS011;46879;45.658;11.814;2023-05-16T12:58:45;6.10;;;1.13;;
60999;SDS011;46879;45.658;11.814;2023-05-16T13:03:50;4.13;;;1.30;;
60999;SDS011;46879;45.658;11.814;2023-05-16T13:08:51;5.13;;;1.50;;
60999;SDS011;46879;45.658;11.814;2023-05-16T13:13:51;5.78;;;1.25;;
60999;SDS011;46879;45.658;11.814;2023-05-16T13:18:52;2.92;;;1.40;;
60999;SDS011;46879;45.658;11.814;2023-05-16T13:23:53;1.95;;;1.20;;
60999;SDS011;46879;45.658;11.814;2023-05-16T13:28:53;6.43;;;1.35;;
60999;SDS011;46879;45.658;11.814;2023-05-16T13:33:54;4.25;;;1.23;;
60999;SDS011;46879;45.658;11.814;2023-05-16T13:38:54;1.48;;;1.10;;
60999;SDS011;46879;45.658;11.814;2023-05-16T13:43:55;2.15;;;1.00;;
60999;SDS011;46879;45.658;11.814;2023-05-16T13:48:56;2.72;;;1.50;;
60999;SDS011;46879;45.658;11.814;2023-05-16T13:53:56;2.30;;;1.30;;
60999;SDS011;46879;45.658;11.814;2023-05-16T13:58:57;1.05;;;0.90;;
60999;SDS011;46879;45.658;11.814;2023-05-16T14:03:58;1.88;;;1.10;;
60999;SDS011;46879;45.658;11.814;2023-05-16T14:08:59;1.48;;;1.10;;
60999;SDS011;46879;45.658;11.814;2023-05-16T14:13:59;3.30;;;1.27;;
60999;SDS011;46879;45.658;11.814;2023-05-16T14:19:00;1.30;;;0.90;;
60999;SDS011;46879;45.658;11.814;2023-05-16T14:24:01;1.95;;;1.10;;
60999;SDS011;46879;45.658;11.814;2023-05-16T14:29:01;3.35;;;1.25;;
60999;SDS011;46879;45.658;11.814;2023-05-16T14:34:02;2.17;;;1.20;;
60999;SDS011;46879;45.658;11.814;2023-05-16T14:39:03;4.38;;;1.10;;
60999;SDS011;46879;45.658;11.814;2023-05-16T14:44:03;1.63;;;1.05;;
60999;SDS011;46879;45.658;11.814;2023-05-16T14:49:04;2.15;;;1.23;;
60999;SDS011;46879;45.658;11.814;2023-05-16T14:54:05;4.63;;;1.23;;
60999;SDS011;46879;45.658;11.814;2023-05-16T14:59:06;2.85;;;1.10;;
60999;SDS011;46879;45.658;11.814;2023-05-16T15:04:06;2.92;;;1.08;;
60999;SDS011;46879;45.658;11.814;2023-05-16T15:09:07;3.35;;;0.95;;
60999;SDS011;46879;45.658;11.814;2023-05-16T15:14:10;1.02;;;1.00;;
60999;SDS011;46879;45.658;11.814;2023-05-16T15:19:11;4.57;;;1.05;;
60999;SDS011;46879;45.658;11.814;2023-05-16T15:24:12;0.98;;;0.88;;
60999;SDS011;46879;45.658;11.814;2023-05-16T15:29:12;2.08;;;1.17;;
60999;SDS011;46879;45.658;11.814;2023-05-16T15:34:13;3.70;;;0.90;;
60999;SDS011;46879;45.658;11.814;2023-05-16T15:39:14;2.35;;;1.20;;
60999;SDS011;46879;45.658;11.814;2023-05-16T15:44:15;0.80;;;0.80;;
60999;SDS011;46879;45.658;11.814;2023-05-16T15:49:15;1.20;;;0.93;;
60999;SDS011;46879;45.658;11.814;2023-05-16T15:54:16;1.40;;;0.90;;
60999;SDS011;46879;45.658;11.814;2023-05-16T15:59:16;3.35;;;1.05;;
60999;SDS011;46879;45.658;11.814;2023-05-16T16:04:17;0.90;;;0.80;;
60999;SDS011;46879;45.658;11.814;2023-05-16T16:09:19;9.35;;;1.10;;
60999;SDS011;46879;45.658;11.814;2023-05-16T16:14:20;3.90;;;1.20;;
60999;SDS011;46879;45.658;11.814;2023-05-16T16:19:24;4.13;;;1.20;;
60999;SDS011;46879;45.658;11.814;2023-05-16T16:24:25;0.95;;;0.90;;
60999;SDS011;46879;45.658;11.814;2023-05-16T16:29:26;2.38;;;1.00;;
60999;SDS011;46879;45.658;11.814;2023-05-16T16:34:27;0.80;;;0.80;;
60999;SDS011;46879;45.658;11.814;2023-05-16T16:39:28;1.17;;;1.00;;
60999;SDS011;46879;45.658;11.814;2023-05-16T16:44:29;1.92;;;0.93;;
60999;SDS011;46879;45.658;11.814;2023-05-16T16:49:30;2.45;;;1.20;;
60999;SDS011;46879;45.658;11.814;2023-05-16T16:54:30;3.83;;;1.10;;
60999;SDS011;46879;45.658;11.814;2023-05-16T16:59:31;1.35;;;1.10;;
60999;SDS011;46879;45.658;11.814;2023-05-16T17:04:32;3.00;;;1.50;;
60999;SDS011;46879;45.658;11.814;2023-05-16T17:09:34;1.30;;;1.08;;
60999;SDS011;46879;45.658;11.814;2023-05-16T17:14:35;3.08;;;1.20;;
60999;SDS011;46879;45.658;11.814;2023-05-16T17:19:36;1.45;;;1.10;;
60999;SDS011;46879;45.658;11.814;2023-05-16T17:24:37;3.65;;;1.27;;
60999;SDS011;46879;45.658;11.814;2023-05-16T17:29:38;1.48;;;1.38;;
60999;SDS011;46879;45.658;11.814;2023-05-16T17:34:39;4.53;;;1.85;;
60999;SDS011;46879;45.658;11.814;2023-05-16T17:39:39;5.22;;;1.48;;
60999;SDS011;46879;45.658;11.814;2023-05-16T17:44:40;2.70;;;1.55;;
60999;SDS011;46879;45.658;11.814;2023-05-16T17:49:41;8.07;;;2.00;;
60999;SDS011;46879;45.658;11.814;2023-05-16T17:54:41;3.38;;;1.70;;
60999;SDS011;46879;45.658;11.814;2023-05-16T17:59:42;3.95;;;1.30;;
60999;SDS011;46879;45.658;11.814;2023-05-16T18:04:43;2.60;;;1.40;;
60999;SDS011;46879;45.658;11.814;2023-05-16T18:09:43;2.35;;;1.40;;
60999;SDS011;46879;45.658;11.814;2023-05-16T18:14:44;5.63;;;1.75;;
60999;SDS011;46879;45.658;11.814;2023-05-16T18:19:44;3.38;;;1.52;;
60999;SDS011;46879;45.658;11.814;2023-05-16T18:24:45;6.07;;;1.55;;
60999;SDS011;46879;45.658;11.814;2023-05-16T18:29:45;7.82;;;1.67;;
60999;SDS011;46879;45.658;11.814;2023-05-16T18:34:46;3.78;;;1.70;;
60999;SDS011;46879;45.658;11.814;2023-05-16T18:39:47;5.13;;;1.70;;
60999;SDS011;46879;45.658;11.814;2023-05-16T18:44:48;5.15;;;1.83;;
60999;SDS011;46879;45.658;11.814;2023-05-16T18:49:49;5.78;;;2.25;;
60999;SDS011;46879;45.658;11.814;2023-05-16T18:54:56;6.00;;;2.10;;
60999;SDS011;46879;45.658;11.814;2023-05-16T19:00:08;7.32;;;1.73;;
60999;SDS011;46879;45.658;11.814;2023-05-16T19:05:17;4.25;;;2.00;;
60999;SDS011;46879;45.658;11.814;2023-05-16T19:10:23;8.60;;;2.20;;
60999;SDS011;46879;45.658;11.814;2023-05-16T19:15:24;4.18;;;1.58;;
60999;SDS011;46879;45.658;11.814;2023-05-16T19:20:25;1.88;;;1.50;;
60999;SDS011;46879;45.658;11.814;2023-05-16T19:25:26;3.28;;;1.73;;
60999;SDS011;46879;45.658;11.814;2023-05-16T19:30:26;4.75;;;1.70;;
60999;SDS011;46879;45.658;11.814;2023-05-16T19:35:27;10.02;;;1.80;;
60999;SDS011;46879;45.658;11.814;2023-05-16T19:40:28;2.45;;;1.63;;
60999;SDS011;46879;45.658;11.814;2023-05-16T19:45:29;5.07;;;1.65;;
60999;SDS011;46879;45.658;11.814;2023-05-16T19:50:29;4.05;;;1.63;;
60999;SDS011;46879;45.658;11.814;2023-05-16T19:55:30;3.45;;;1.85;;
60999;SDS011;46879;45.658;11.814;2023-05-16T20:00:32;3.30;;;1.70;;
60999;SDS011;46879;45.658;11.814;2023-05-16T20:05:32;6.15;;;1.50;;
60999;SDS011;46879;45.658;11.814;2023-05-16T20:10:33;4.50;;;1.83;;
60999;SDS011;46879;45.658;11.814;2023-05-16T20:15:34;2.30;;;1.38;;
60999;SDS011;46879;45.658;11.814;2023-05-16T20:20:35;2.40;;;1.70;;
60999;SDS011;46879;45.658;11.814;2023-05-16T20:25:35;2.25;;;1.42;;
60999;SDS011;46879;45.658;11.814;2023-05-16T20:30:36;4.05;;;2.10;;
60999;SDS011;46879;45.658;11.814;2023-05-16T20:35:37;5.38;;;1.73;;
60999;SDS011;46879;45.658;11.814;2023-05-16T20:40:38;4.70;;;1.80;;
60999;SDS011;46879;45.658;11.814;2023-05-16T20:45:39;1.98;;;1.65;;
60999;SDS011;46879;45.658;11.814;2023-05-16T20:50:40;2.95;;;1.70;;
60999;SDS011;46879;45.658;11.814;2023-05-16T20:55:40;2.42;;;1.90;;
60999;SDS011;46879;45.658;11.814;2023-05-16T21:00:41;4.47;;;1.60;;
60999;SDS011;46879;45.658;11.814;2023-05-16T21:05:42;3.88;;;1.70;;
60999;SDS011;46879;45.658;11.814;2023-05-16T21:10:42;2.85;;;1.70;;
60999;SDS011;46879;45.658;11.814;2023-05-16T21:15:43;4.38;;;1.77;;
60999;SDS011;46879;45.658;11.814;2023-05-16T21:20:44;2.65;;;1.90;;
60999;SDS011;46879;45.658;11.814;2023-05-16T21:25:44;2.95;;;1.98;;
60999;SDS011;46879;45.658;11.814;2023-05-16T21:30:45;2.47;;;1.75;;
60999;SDS011;46879;45.658;11.814;2023-05-16T21:35:46;5.53;;;1.90;;
60999;SDS011;46879;45.658;11.814;2023-05-16T21:40:47;3.17;;;2.05;;
60999;SDS011;46879;45.658;11.814;2023-05-16T21:45:48;3.83;;;1.98;;
60999;SDS011;46879;45.658;11.814;2023-05-16T21:50:49;2.20;;;1.75;;
60999;SDS011;46879;45.658;11.814;2023-05-16T21:55:50;5.68;;;2.03;;
60999;SDS011;46879;45.658;11.814;2023-05-16T22:00:51;4.03;;;1.83;;
60999;SDS011;46879;45.658;11.814;2023-05-16T22:05:51;8.75;;;2.17;;
60999;SDS011;46879;45.658;11.814;2023-05-16T22:10:52;6.57;;;1.80;;
60999;SDS011;46879;45.658;11.814;2023-05-16T22:15:53;3.90;;;1.73;;
60999;SDS011;46879;45.658;11.814;2023-05-16T22:20:54;2.80;;;1.88;;
60999;SDS011;46879;45.658;11.814;2023-05-16T22:25:54;6.60;;;1.85;;
60999;SDS011;46879;45.658;11.814;2023-05-16T22:30:55;2.20;;;1.90;;
60999;SDS011;46879;45.658;11.814;2023-05-16T22:35:55;2.17;;;1.77;;
60999;SDS011;46879;45.658;11.814;2023-05-16T22:40:56;3.75;;;2.10;;
60999;SDS011;46879;45.658;11.814;2023-05-16T22:45:57;2.67;;;1.90;;
60999;SDS011;46879;45.658;11.814;2023-05-16T22:50:57;2.88;;;1.75;;
60999;SDS011;46879;45.658;11.814;2023-05-16T22:55:58;2.38;;;1.60;;
60999;SDS011;46879;45.658;11.814;2023-05-16T23:00:59;2.08;;;1.73;;
60999;SDS011;46879;45.658;11.814;2023-05-16T23:06:01;2.67;;;1.88;;
60999;SDS011;46879;45.658;11.814;2023-05-16T23:11:01;2.33;;;1.85;;
60999;SDS011;46879;45.658;11.814;2023-05-16T23:16:02;6.00;;;2.17;;
60999;SDS011;46879;45.658;11.814;2023-05-16T23:21:03;2.63;;;1.90;;
60999;SDS011;46879;45.658;11.814;2023-05-16T23:26:03;2.03;;;1.85;;
60999;SDS011;46879;45.658;11.814;2023-05-16T23:31:04;6.38;;;2.45;;
60999;SDS011;46879;45.658;11.814;2023-05-16T23:36:05;3.55;;;2.00;;
60999;SDS011;46879;45.658;11.814;2023-05-16T23:41:06;2.10;;;1.90;;
60999;SDS011;46879;45.658;11.814;2023-05-16T23:46:06;2.20;;;2.00;;
60999;SDS011;46879;45.658;11.814;2023-05-16T23:51:07;3.13;;;1.90;;
60999;SDS011;46879;45.658;11.814;2023-05-16T23:56:08;3.00;;;2.15;;
